createdAt,value
2019-05-01T00:00:52.643Z,78.50
2019-05-01T00:06:13.057Z,78.95
2019-05-01T00:11:31.707Z,79.83
2019-05-01T00:16:50.362Z,79.78
2019-05-01T00:22:09.115Z,79.52
2019-05-01T00:27:27.698Z,79.80
2019-05-01T00:32:46.326Z,80.03
2019-05-01T00:38:04.952Z,80.08
2019-05-01T00:43:23.592Z,80.02
2019-05-01T00:48:42.160Z,80.16
2019-05-01T00:54:00.908Z,80.31
2019-05-01T00:59:27.113Z,80.29
2019-05-01T01:04:45.776Z,80.23
2019-05-01T01:10:06.184Z,80.38
2019-05-01T01:15:25.236Z,80.49
2019-05-01T01:20:43.924Z,80.51
2019-05-01T01:26:02.579Z,80.71
2019-05-01T01:31:21.150Z,80.83
2019-05-01T01:36:39.679Z,80.89
2019-05-01T01:41:58.659Z,80.96
2019-05-01T01:47:17.872Z,80.91
2019-05-01T01:52:36.516Z,80.93
2019-05-01T01:57:55.848Z,81.23
2019-05-01T02:03:14.568Z,81.65
2019-05-01T02:08:33.300Z,81.75
2019-05-01T02:13:56.128Z,81.72
2019-05-01T02:19:14.874Z,81.61
2019-05-01T02:24:33.504Z,81.68
2019-05-01T02:29:53.894Z,81.77
2019-05-01T02:35:12.764Z,81.85
2019-05-01T02:40:42.941Z,81.87
2019-05-01T02:46:05.315Z,81.92
2019-05-01T02:51:25.678Z,81.90
2019-05-01T02:56:53.033Z,81.90
2019-05-01T03:02:12.087Z,81.88
2019-05-01T03:07:34.059Z,81.93
2019-05-01T03:12:53.894Z,81.94
2019-05-01T03:18:17.158Z,81.88
2019-05-01T03:23:37.825Z,81.68
2019-05-01T03:28:56.479Z,81.47
2019-05-01T03:34:15.111Z,81.38
2019-05-01T03:39:33.760Z,81.27
2019-05-01T03:44:52.929Z,81.22
2019-05-01T03:50:11.779Z,81.21
2019-05-01T03:55:30.981Z,81.09
2019-05-01T04:00:51.248Z,81.09
2019-05-01T04:06:11.370Z,80.75
2019-05-01T04:11:30.376Z,80.64
2019-05-01T04:16:51.074Z,80.75
2019-05-01T04:22:11.353Z,80.79
2019-05-01T04:27:31.625Z,80.75
2019-05-01T04:32:53.357Z,80.73
2019-05-01T04:38:12.652Z,80.75
2019-05-01T04:43:31.422Z,80.77
2019-05-01T04:48:50.363Z,80.65
2019-05-01T04:54:09.317Z,80.44
2019-05-01T04:59:27.961Z,80.54
2019-05-01T05:04:46.791Z,80.51
2019-05-01T05:10:06.973Z,80.60
2019-05-01T05:15:43.837Z,80.63
2019-05-01T05:21:02.729Z,81.08
2019-05-01T05:26:21.378Z,81.31
2019-05-01T05:31:42.515Z,81.68
2019-05-01T05:37:04.928Z,81.89
2019-05-01T05:42:23.355Z,81.94
2019-05-01T05:47:42.038Z,81.89
2019-05-01T05:53:10.376Z,81.71
2019-05-01T05:58:38.324Z,81.17
2019-05-01T06:04:01.789Z,80.82
2019-05-01T06:09:24.689Z,81.35
2019-05-01T06:14:46.243Z,81.42
2019-05-01T06:20:14.795Z,81.14
2019-05-01T06:25:37.647Z,81.15
2019-05-01T06:30:58.020Z,80.77
2019-05-01T06:36:17.324Z,79.97
2019-05-01T06:41:42.430Z,79.35
2019-05-01T06:47:05.120Z,79.99
2019-05-01T06:52:29.449Z,79.61
2019-05-01T06:57:46.583Z,79.83
2019-05-01T07:03:06.062Z,79.08
2019-05-01T07:08:29.426Z,78.93
2019-05-01T07:13:52.161Z,79.94
2019-05-01T07:19:11.257Z,80.46
2019-05-01T07:24:29.894Z,80.43
2019-05-01T07:29:50.236Z,80.46
2019-05-01T07:35:09.593Z,80.67
2019-05-01T07:40:30.192Z,80.14
2019-05-01T07:45:51.210Z,77.62
2019-05-01T07:51:10.669Z,75.91
2019-05-01T07:56:30.062Z,76.35
2019-05-01T08:02:02.800Z,75.89
2019-05-01T08:07:21.556Z,75.34
2019-05-01T08:12:40.163Z,75.21
2019-05-01T08:18:00.607Z,74.41
2019-05-01T08:23:19.393Z,74.05
2019-05-01T08:28:39.699Z,73.79
2019-05-01T08:33:59.979Z,74.43
2019-05-01T08:39:18.676Z,73.93
2019-05-01T08:44:48.179Z,72.18
2019-05-01T08:50:15.398Z,73.34
2019-05-01T08:55:33.968Z,72.29
2019-05-01T09:00:52.621Z,70.90
2019-05-01T09:06:11.276Z,70.63
2019-05-01T09:11:31.825Z,69.57
2019-05-01T09:16:52.465Z,70.75
2019-05-01T09:22:10.961Z,69.35
2019-05-01T09:27:43.447Z,69.40
2019-05-01T09:33:02.212Z,67.54
2019-05-01T09:38:20.887Z,67.06
2019-05-01T09:43:39.513Z,66.98
2019-05-01T09:48:58.508Z,67.72
2019-05-01T09:54:21.639Z,67.34
2019-05-01T09:59:40.453Z,67.71
2019-05-01T10:05:02.003Z,67.42
2019-05-01T10:10:19.873Z,68.07
2019-05-01T10:15:38.516Z,70.85
2019-05-01T10:20:57.260Z,69.94
2019-05-01T10:26:19.034Z,68.52
2019-05-01T10:31:56.302Z,68.35
2019-05-01T10:37:15.027Z,65.10
2019-05-01T10:42:33.697Z,64.09
2019-05-01T10:47:52.605Z,63.98
2019-05-01T10:53:11.628Z,64.60
2019-05-01T10:58:30.239Z,61.57
2019-05-01T11:03:48.951Z,60.56
2019-05-01T11:09:08.072Z,61.81
2019-05-01T11:14:27.162Z,61.20
2019-05-01T11:19:46.002Z,60.46
2019-05-01T11:25:06.744Z,59.50
2019-05-01T11:30:25.764Z,60.42
2019-05-01T11:36:09.154Z,58.47
2019-05-01T11:41:24.652Z,57.14
2019-05-01T11:46:43.417Z,60.04
2019-05-01T11:52:02.219Z,57.78
2019-05-01T11:57:20.786Z,56.54
2019-05-01T12:02:39.482Z,57.18
2019-05-01T12:07:58.223Z,55.74
2019-05-01T12:13:17.128Z,57.99
2019-05-01T12:18:36.071Z,54.68
2019-05-01T12:23:54.742Z,56.46
2019-05-01T12:29:13.399Z,56.79
2019-05-01T12:34:32.069Z,58.33
2019-05-01T12:39:50.737Z,56.66
2019-05-01T12:45:11.198Z,57.13
2019-05-01T12:50:30.042Z,55.92
2019-05-01T12:56:02.510Z,58.28
2019-05-01T13:01:21.228Z,55.85
2019-05-01T13:06:49.270Z,53.96
2019-05-01T13:12:00.317Z,55.27
2019-05-01T13:17:19.105Z,55.12
2019-05-01T13:22:37.748Z,56.12
2019-05-01T13:28:10.315Z,56.80
2019-05-01T13:33:29.032Z,53.28
2019-05-01T13:38:47.679Z,54.80
2019-05-01T13:44:06.435Z,57.37
2019-05-01T13:49:25.082Z,55.52
2019-05-01T13:54:43.725Z,54.40
2019-05-01T14:00:02.373Z,52.86
2019-05-01T14:05:21.111Z,56.13
2019-05-01T14:10:39.764Z,52.27
2019-05-01T14:15:58.412Z,52.40
2019-05-01T14:21:21.425Z,55.52
2019-05-01T14:26:40.094Z,54.07
2019-05-01T14:31:58.765Z,51.19
2019-05-01T14:37:29.073Z,52.43
2019-05-01T14:42:38.215Z,52.41
2019-05-01T14:47:56.954Z,53.13
2019-05-01T14:53:15.680Z,52.73
2019-05-01T14:58:34.323Z,51.97
2019-05-01T15:03:52.981Z,53.27
2019-05-01T15:09:11.856Z,51.26
2019-05-01T15:14:32.000Z,51.39
2019-05-01T15:19:58.021Z,52.27
2019-05-01T15:25:16.755Z,54.47
2019-05-01T15:30:35.433Z,53.53
2019-05-01T15:35:54.079Z,52.68
2019-05-01T15:41:26.689Z,52.63
2019-05-01T15:46:45.484Z,52.63
2019-05-01T15:58:09.806Z,52.62
2019-05-01T16:03:43.873Z,51.53
2019-05-01T16:08:54.955Z,53.22
2019-05-01T16:14:19.008Z,52.31
2019-05-01T16:19:38.576Z,51.67
2019-05-01T16:24:57.657Z,52.78
2019-05-01T16:30:18.115Z,52.34
2019-05-01T16:35:37.088Z,52.80
2019-05-01T16:41:01.627Z,51.77
2019-05-01T16:46:20.488Z,52.82
2019-05-01T16:51:39.270Z,51.63
2019-05-01T16:56:57.912Z,52.86
2019-05-01T17:02:34.555Z,53.08
2019-05-01T17:08:03.942Z,51.84
2019-05-01T17:13:23.237Z,52.52
2019-05-01T17:18:41.975Z,53.91
2019-05-01T17:24:01.543Z,52.56
2019-05-01T17:29:20.146Z,53.24
2019-05-01T17:34:38.811Z,52.59
2019-05-01T17:39:57.530Z,52.96
2019-05-01T17:45:16.300Z,54.22
2019-05-01T17:50:35.009Z,54.45
2019-05-01T17:55:53.756Z,53.94
2019-05-01T18:01:17.423Z,54.33
2019-05-01T18:06:37.754Z,54.91
2019-05-01T18:11:56.991Z,55.16
2019-05-01T18:17:16.393Z,56.14
2019-05-01T18:22:39.746Z,57.12
2019-05-01T18:28:03.270Z,58.16
2019-05-01T18:33:25.981Z,59.50
2019-05-01T18:38:48.700Z,60.91
2019-05-01T18:44:10.105Z,62.53
2019-05-01T18:49:28.469Z,64.24
2019-05-01T18:54:47.226Z,65.37
2019-05-01T19:00:07.737Z,65.48
2019-05-01T19:05:26.663Z,66.91
2019-05-01T19:10:45.470Z,67.84
2019-05-01T19:16:08.294Z,69.21
2019-05-01T19:21:28.159Z,69.67
2019-05-01T19:26:47.303Z,69.58
2019-05-01T19:32:07.332Z,69.72
2019-05-01T19:37:36.522Z,70.37
2019-05-01T19:42:46.896Z,71.10
2019-05-01T19:48:05.916Z,71.69
2019-05-01T19:53:25.145Z,71.92
2019-05-01T19:58:44.013Z,72.41
2019-05-01T20:04:02.907Z,73.75
2019-05-01T20:09:22.013Z,74.56
2019-05-01T20:14:40.769Z,75.43
2019-05-01T20:19:59.483Z,75.25
2019-05-01T20:25:19.383Z,75.87
2019-05-01T20:30:39.028Z,75.71
2019-05-01T20:36:00.419Z,76.55
2019-05-01T20:41:19.488Z,76.85
2019-05-01T20:46:40.670Z,76.83
2019-05-01T20:52:00.046Z,77.65
2019-05-01T20:57:29.475Z,77.83
2019-05-01T21:03:08.199Z,78.43
2019-05-01T21:08:46.599Z,78.89
2019-05-01T21:14:19.677Z,78.97
2019-05-01T21:19:28.749Z,79.41
2019-05-01T21:24:47.074Z,79.40
2019-05-01T21:30:08.662Z,79.33
2019-05-01T21:35:27.504Z,79.37
2019-05-01T21:40:46.357Z,79.13
2019-05-01T21:46:05.109Z,79.52
2019-05-01T21:51:23.628Z,79.99
2019-05-01T21:56:42.855Z,80.14
2019-05-01T22:02:05.391Z,80.09
2019-05-01T22:07:23.756Z,80.27
2019-05-01T22:12:43.833Z,80.53
2019-05-01T22:18:04.808Z,80.56
2019-05-01T22:23:31.216Z,80.51
2019-05-01T22:28:55.037Z,80.51
2019-05-01T22:34:22.924Z,80.46
2019-05-01T22:39:43.418Z,80.62
2019-05-01T22:45:02.135Z,80.84
2019-05-01T22:50:20.846Z,81.04
2019-05-01T22:55:39.492Z,81.18
2019-05-01T23:00:59.861Z,81.16
2019-05-01T23:06:19.576Z,81.20
2019-05-01T23:11:40.744Z,81.33
2019-05-01T23:17:07.066Z,81.52
2019-05-01T23:22:25.776Z,81.57
2019-05-01T23:27:44.593Z,81.63
2019-05-01T23:33:03.347Z,81.69
2019-05-01T23:38:22.066Z,81.80
2019-05-01T23:43:41.113Z,81.86
2019-05-01T23:49:00.008Z,81.88
2019-05-01T23:54:18.682Z,81.96
2019-05-01T23:59:37.360Z,82.04
